createdAt,value
2023-02-06T00:03:23.762Z,99.90
2023-02-06T00:07:25.623Z,99.90
2023-02-06T00:11:27.643Z,99.90
2023-02-06T00:15:29.599Z,99.90
2023-02-06T00:19:31.708Z,99.90
2023-02-06T00:23:33.641Z,99.90
2023-02-06T00:27:35.839Z,99.90
2023-02-06T00:31:37.871Z,99.90
2023-02-06T00:35:41.721Z,99.90
2023-02-06T00:39:43.993Z,99.90
2023-02-06T00:43:45.931Z,99.90
2023-02-06T00:47:47.953Z,99.70
2023-02-06T00:51:50.054Z,99.80
2023-02-06T00:55:52.035Z,99.90
2023-02-06T00:59:55.000Z,99.90
2023-02-06T01:03:56.929Z,99.90
2023-02-06T01:07:58.879Z,99.90
2023-02-06T01:12:00.867Z,99.90
2023-02-06T01:16:02.887Z,99.90
2023-02-06T01:20:07.885Z,99.60
2023-02-06T01:24:10.343Z,99.60
2023-02-06T01:28:12.856Z,99.10
2023-02-06T01:32:14.814Z,98.80
2023-02-06T01:36:17.707Z,98.60
2023-02-06T01:40:19.741Z,98.60
2023-02-06T01:44:24.585Z,98.30
2023-02-06T01:48:32.388Z,98.50
2023-02-06T01:52:34.465Z,98.60
2023-02-06T01:56:43.548Z,98.50
2023-02-06T02:00:46.760Z,98.30
2023-02-06T02:04:48.974Z,98.30
2023-02-06T02:08:54.151Z,98.30
2023-02-06T02:12:56.148Z,98.10
2023-02-06T02:17:17.130Z,97.80
2023-02-06T02:21:37.645Z,98.00
2023-02-06T02:26:21.983Z,97.90
2023-02-06T02:30:54.672Z,98.00
2023-02-06T02:35:03.024Z,97.90
2023-02-06T02:39:21.114Z,97.80
2023-02-06T02:43:55.456Z,98.00
2023-02-06T02:48:28.097Z,97.80
2023-02-06T02:52:30.121Z,98.30
2023-02-06T02:56:33.657Z,98.10
2023-02-06T03:00:43.395Z,97.80
2023-02-06T03:04:58.886Z,98.00
2023-02-06T03:09:13.126Z,98.10
2023-02-06T03:13:18.403Z,98.20
2023-02-06T03:17:47.587Z,98.30
2023-02-06T03:21:50.331Z,98.30
2023-02-06T03:25:58.401Z,97.70
2023-02-06T03:30:02.133Z,97.60
2023-02-06T03:34:19.863Z,97.30
2023-02-06T03:38:24.732Z,97.10
2023-02-06T03:42:29.557Z,97.90
2023-02-06T03:46:34.349Z,97.80
2023-02-06T03:50:39.884Z,97.40
2023-02-06T03:54:47.544Z,97.10
2023-02-06T03:58:49.588Z,97.50
2023-02-06T04:02:52.451Z,97.40
2023-02-06T04:07:00.709Z,97.20
2023-02-06T04:11:02.656Z,97.00
2023-02-06T04:15:05.127Z,97.00
2023-02-06T04:19:07.090Z,97.00
2023-02-06T04:23:09.178Z,96.50
2023-02-06T04:27:13.969Z,96.20
2023-02-06T04:31:16.107Z,96.30
2023-02-06T04:35:18.253Z,96.20
2023-02-06T04:39:20.302Z,96.10
2023-02-06T04:43:22.226Z,96.20
2023-02-06T04:47:24.210Z,96.20
2023-02-06T04:51:26.198Z,96.20
2023-02-06T04:55:28.387Z,96.40
2023-02-06T04:59:30.323Z,96.50
2023-02-06T05:03:32.309Z,96.40
2023-02-06T05:07:35.730Z,96.50
2023-02-06T05:11:37.718Z,96.10
2023-02-06T05:15:39.952Z,96.40
2023-02-06T05:19:42.120Z,96.80
2023-02-06T05:23:44.475Z,96.90
2023-02-06T05:27:46.710Z,97.20
2023-02-06T05:31:48.710Z,96.90
2023-02-06T05:35:50.676Z,96.80
2023-02-06T05:39:52.749Z,96.90
2023-02-06T05:43:54.669Z,96.80
2023-02-06T05:47:56.705Z,96.70
2023-02-06T05:51:58.720Z,96.60
2023-02-06T05:56:00.680Z,96.80
2023-02-06T06:00:04.038Z,96.60
2023-02-06T06:04:14.129Z,96.40
2023-02-06T06:08:16.183Z,96.50
2023-02-06T06:12:18.096Z,96.50
2023-02-06T06:16:20.046Z,96.60
2023-02-06T06:20:22.178Z,96.50
2023-02-06T06:24:24.469Z,96.20
2023-02-06T06:28:26.401Z,95.90
2023-02-06T06:32:28.301Z,95.70
2023-02-06T06:36:30.244Z,95.70
2023-02-06T06:40:32.267Z,95.70
2023-02-06T06:44:34.513Z,95.80
2023-02-06T06:48:38.220Z,95.80
2023-02-06T06:52:40.197Z,96.10
2023-02-06T06:56:42.651Z,95.90
2023-02-06T07:00:44.970Z,96.20
2023-02-06T07:04:46.916Z,96.30
2023-02-06T07:08:48.860Z,96.30
2023-02-06T07:12:53.523Z,96.10
2023-02-06T07:16:56.302Z,96.10
2023-02-06T07:20:58.388Z,96.00
2023-02-06T07:25:00.280Z,95.80
2023-02-06T07:29:02.196Z,95.70
2023-02-06T07:33:07.921Z,95.70
2023-02-06T07:37:10.173Z,96.10
2023-02-06T07:41:12.824Z,95.90
2023-02-06T07:45:15.084Z,96.10
2023-02-06T07:49:17.118Z,96.00
2023-02-06T07:53:20.341Z,96.20
2023-02-06T07:57:22.327Z,95.80
2023-02-06T08:01:24.429Z,96.10
2023-02-06T08:05:26.409Z,95.90
2023-02-06T08:09:28.924Z,95.70
2023-02-06T08:13:30.871Z,95.20
2023-02-06T08:17:32.764Z,95.90
2023-02-06T08:21:34.719Z,95.90
2023-02-06T08:25:36.919Z,96.00
2023-02-06T08:29:42.638Z,95.90
2023-02-06T08:33:45.187Z,95.80
2023-02-06T08:37:47.107Z,95.80
2023-02-06T08:41:49.893Z,95.70
2023-02-06T08:45:53.367Z,95.80
2023-02-06T08:49:55.454Z,95.90
2023-02-06T08:54:02.805Z,96.00
2023-02-06T08:58:05.572Z,95.80
2023-02-06T09:02:09.528Z,95.70
2023-02-06T09:06:12.311Z,95.00
2023-02-06T09:10:26.769Z,94.70
2023-02-06T09:14:30.070Z,93.70
2023-02-06T09:18:32.202Z,95.30
2023-02-06T09:22:35.879Z,95.00
2023-02-06T09:26:58.146Z,96.20
2023-02-06T09:31:01.324Z,95.30
2023-02-06T09:35:04.570Z,94.80
2023-02-06T09:39:08.528Z,94.50
2023-02-06T09:43:13.984Z,94.30
2023-02-06T09:47:28.895Z,94.00
2023-02-06T09:51:40.468Z,94.70
2023-02-06T09:55:44.214Z,95.10
2023-02-06T09:59:56.313Z,94.70
2023-02-06T10:04:20.863Z,94.90
2023-02-06T10:08:28.319Z,94.50
2023-02-06T10:12:45.518Z,95.00
2023-02-06T10:16:50.303Z,95.20
2023-02-06T10:21:14.351Z,95.00
2023-02-06T10:25:29.127Z,95.20
2023-02-06T10:29:34.137Z,95.20
2023-02-06T10:34:10.411Z,94.90
2023-02-06T10:38:30.211Z,95.50
2023-02-06T10:42:53.889Z,95.40
2023-02-06T10:46:56.805Z,95.90
2023-02-06T10:51:20.344Z,95.80
2023-02-06T10:55:28.301Z,96.40
2023-02-06T10:59:33.676Z,95.30
2023-02-06T11:03:43.124Z,95.10
2023-02-06T11:07:57.132Z,94.60
2023-02-06T11:12:00.879Z,94.10
2023-02-06T11:16:12.910Z,94.00
2023-02-06T11:20:20.259Z,93.70
2023-02-06T11:24:24.656Z,93.80
2023-02-06T11:28:27.165Z,93.70
2023-02-06T11:32:52.811Z,93.00
2023-02-06T11:37:03.938Z,94.10
2023-02-06T11:41:19.075Z,94.30
2023-02-06T11:45:28.351Z,94.40
2023-02-06T11:49:30.293Z,94.00
2023-02-06T11:53:34.354Z,95.30
2023-02-06T11:57:36.322Z,95.50
2023-02-06T12:01:43.016Z,94.80
2023-02-06T12:05:45.275Z,94.20
2023-02-06T12:09:47.247Z,94.30
2023-02-06T12:13:56.967Z,93.70
2023-02-06T12:18:10.013Z,94.10
2023-02-06T12:22:24.255Z,94.80
2023-02-06T12:26:29.526Z,95.00
2023-02-06T12:31:17.091Z,94.20
2023-02-06T12:35:26.746Z,93.70
2023-02-06T12:39:34.332Z,93.00
2023-02-06T12:43:40.868Z,94.00
2023-02-06T12:47:58.710Z,94.10
2023-02-06T12:52:14.632Z,94.20
2023-02-06T12:56:30.847Z,94.20
2023-02-06T13:00:41.600Z,94.10
2023-02-06T13:04:45.976Z,93.90
2023-02-06T13:08:58.196Z,93.90
2023-02-06T13:13:00.203Z,93.40
2023-02-06T13:17:16.630Z,93.70
2023-02-06T13:21:29.951Z,93.20
2023-02-06T13:25:31.949Z,93.20
2023-02-06T13:29:38.657Z,93.30
2023-02-06T13:33:51.355Z,92.60
2023-02-06T13:38:12.654Z,93.30
2023-02-06T13:42:56.889Z,92.90
2023-02-06T13:47:57.673Z,92.90
2023-02-06T13:52:37.880Z,92.40
2023-02-06T13:56:59.881Z,92.10
2023-02-06T14:01:04.570Z,91.80
2023-02-06T14:05:11.170Z,91.60
2023-02-06T14:09:44.109Z,91.80
2023-02-06T14:14:04.559Z,91.90
2023-02-06T14:18:15.382Z,92.20
2023-02-06T14:22:43.958Z,92.30
2023-02-06T14:27:21.287Z,92.20
2023-02-06T14:31:29.645Z,92.30
2023-02-06T14:35:53.084Z,92.60
2023-02-06T14:39:57.371Z,92.40
2023-02-06T14:44:00.015Z,92.50
2023-02-06T14:48:04.827Z,92.60
2023-02-06T14:52:06.786Z,92.60
2023-02-06T14:56:24.985Z,92.70
2023-02-06T15:00:28.345Z,92.90
2023-02-06T15:04:30.684Z,93.00
2023-02-06T15:08:33.609Z,93.20
2023-02-06T15:12:36.543Z,93.00
2023-02-06T15:16:49.047Z,92.90
2023-02-06T15:20:57.321Z,93.30
2023-02-06T15:25:31.494Z,93.00
2023-02-06T15:29:33.621Z,93.80
2023-02-06T15:33:35.937Z,94.00
2023-02-06T15:37:37.868Z,94.00
2023-02-06T15:41:42.357Z,93.60
2023-02-06T15:45:45.050Z,93.90
2023-02-06T15:49:50.497Z,93.90
2023-02-06T15:54:06.613Z,94.40
2023-02-06T15:58:15.517Z,94.80
2023-02-06T16:02:25.564Z,94.30
2023-02-06T16:06:27.859Z,93.90
2023-02-06T16:10:35.871Z,94.20
2023-02-06T16:14:52.430Z,94.30
2023-02-06T16:18:57.376Z,94.20
2023-02-06T16:23:18.097Z,94.40
2023-02-06T16:27:27.905Z,94.90
2023-02-06T16:31:34.096Z,94.80
2023-02-06T16:35:36.110Z,94.50
2023-02-06T16:39:40.605Z,94.60
2023-02-06T16:43:42.580Z,94.90
2023-02-06T16:47:44.680Z,95.80
2023-02-06T16:51:48.611Z,95.00
2023-02-06T16:55:51.013Z,95.20
2023-02-06T16:59:53.008Z,95.30
2023-02-06T17:03:55.492Z,95.20
2023-02-06T17:07:57.586Z,95.40
2023-02-06T17:11:59.551Z,96.30
2023-02-06T17:16:01.602Z,96.00
2023-02-06T17:20:03.987Z,95.40
2023-02-06T17:24:06.215Z,95.50
2023-02-06T17:28:10.993Z,95.90
2023-02-06T17:32:13.381Z,95.80
2023-02-06T17:36:29.625Z,95.70
2023-02-06T17:40:34.139Z,96.00
2023-02-06T17:44:36.143Z,95.90
2023-02-06T17:48:42.622Z,95.70
2023-02-06T17:52:44.698Z,95.40
2023-02-06T17:56:46.668Z,96.30
2023-02-06T18:00:49.811Z,96.20
2023-02-06T18:04:54.146Z,96.70
2023-02-06T18:08:56.142Z,96.60
2023-02-06T18:12:58.135Z,96.20
2023-02-06T18:17:00.108Z,96.60
2023-02-06T18:21:02.103Z,97.10
2023-02-06T18:25:05.284Z,97.40
2023-02-06T18:29:07.341Z,97.50
2023-02-06T18:33:11.293Z,99.10
2023-02-06T18:37:13.710Z,99.90
2023-02-06T18:41:36.381Z,99.90
2023-02-06T18:45:40.185Z,99.40
2023-02-06T18:49:42.350Z,99.90
2023-02-06T18:53:44.344Z,99.40
2023-02-06T18:57:46.478Z,99.60
2023-02-06T19:01:49.228Z,99.90
2023-02-06T19:05:51.241Z,99.90
2023-02-06T19:10:00.745Z,99.90
2023-02-06T19:14:04.260Z,99.90
2023-02-06T19:18:07.814Z,99.90
2023-02-06T19:22:09.734Z,99.90
2023-02-06T19:26:14.631Z,99.90
2023-02-06T19:30:16.677Z,99.90
2023-02-06T19:34:18.606Z,99.90
2023-02-06T19:38:20.639Z,99.90
2023-02-06T19:42:22.978Z,99.90
2023-02-06T19:46:27.303Z,99.90
2023-02-06T19:50:29.252Z,99.90
2023-02-06T19:54:31.456Z,99.90
2023-02-06T19:58:33.379Z,99.90
2023-02-06T20:02:35.230Z,99.90
2023-02-06T20:06:37.216Z,99.90
2023-02-06T20:10:39.409Z,99.90
2023-02-06T20:14:41.438Z,99.90
2023-02-06T20:18:43.482Z,99.90
2023-02-06T20:22:45.529Z,99.90
2023-02-06T20:26:49.168Z,99.80
2023-02-06T20:30:51.215Z,99.20
2023-02-06T20:34:53.284Z,98.70
2023-02-06T20:38:57.516Z,98.50
2023-02-06T20:42:59.470Z,98.50
2023-02-06T20:47:01.585Z,98.30
2023-02-06T20:51:05.352Z,98.20
2023-02-06T20:55:07.654Z,98.00
2023-02-06T20:59:13.419Z,97.60
2023-02-06T21:03:15.355Z,97.50
2023-02-06T21:07:20.562Z,97.60
2023-02-06T21:11:23.081Z,97.50
2023-02-06T21:15:25.309Z,97.20
2023-02-06T21:19:29.220Z,97.00
2023-02-06T21:23:31.125Z,96.70
2023-02-06T21:27:33.154Z,96.40
2023-02-06T21:31:38.320Z,96.10
2023-02-06T21:35:40.706Z,95.50
2023-02-06T21:39:42.767Z,95.60
2023-02-06T21:43:45.444Z,94.60
2023-02-06T21:47:47.339Z,94.60
2023-02-06T21:51:50.442Z,93.70
2023-02-06T21:55:52.397Z,93.50
2023-02-06T21:59:54.368Z,93.20
2023-02-06T22:03:57.295Z,93.80
2023-02-06T22:07:59.277Z,93.60
2023-02-06T22:12:01.788Z,93.70
2023-02-06T22:16:03.846Z,93.60
2023-02-06T22:20:06.423Z,93.70
2023-02-06T22:24:11.128Z,93.80
2023-02-06T22:28:13.134Z,94.10
2023-02-06T22:32:15.097Z,94.20
2023-02-06T22:36:20.295Z,94.40
2023-02-06T22:40:22.190Z,94.60
2023-02-06T22:44:24.162Z,94.40
2023-02-06T22:48:26.261Z,94.60
2023-02-06T22:52:46.812Z,94.60
2023-02-06T22:56:49.119Z,94.30
2023-02-06T23:00:51.094Z,94.50
2023-02-06T23:04:53.081Z,94.60
2023-02-06T23:08:56.461Z,95.10
2023-02-06T23:12:58.463Z,94.90
2023-02-06T23:17:01.366Z,94.80
2023-02-06T23:21:07.524Z,95.90
2023-02-06T23:25:10.230Z,96.20
2023-02-06T23:29:15.868Z,95.80
2023-02-06T23:33:18.515Z,97.10
2023-02-06T23:37:20.420Z,97.20
2023-02-06T23:41:25.003Z,96.30
2023-02-06T23:45:27.070Z,95.80
2023-02-06T23:49:30.177Z,96.10
2023-02-06T23:53:32.180Z,96.60
2023-02-06T23:57:39.005Z,96.90
